createdAt,value
2023-01-23T00:00:11.681Z,-7.12
2023-01-23T00:05:11.687Z,-7.25
2023-01-23T00:10:11.708Z,-7.31
2023-01-23T00:15:11.709Z,-7
2023-01-23T00:20:11.720Z,-6.68
2023-01-23T00:25:11.701Z,-6.87
2023-01-23T00:30:11.682Z,-6.68
2023-01-23T00:35:11.692Z,-6.87
2023-01-23T00:40:11.747Z,-6.87
2023-01-23T00:45:11.678Z,-6.81
2023-01-23T00:50:11.711Z,-7.06
2023-01-23T00:55:11.674Z,-6.5
2023-01-23T01:00:11.732Z,-6.68
2023-01-23T01:05:11.726Z,-6.93
2023-01-23T01:10:11.695Z,-6.93
2023-01-23T01:15:11.710Z,-6.31
2023-01-23T01:20:11.712Z,-6.06
2023-01-23T01:25:11.703Z,-5.93
2023-01-23T01:30:11.713Z,-5.62
2023-01-23T01:35:11.692Z,-5.18
2023-01-23T01:40:11.699Z,-4.93
2023-01-23T01:45:11.708Z,-5.25
2023-01-23T01:50:12.399Z,-5
2023-01-23T01:55:11.735Z,-5.18
2023-01-23T02:00:11.722Z,-4.81
2023-01-23T02:05:11.721Z,-4.87
2023-01-23T02:10:11.697Z,-4.75
2023-01-23T02:15:11.941Z,-4.25
2023-01-23T02:20:11.824Z,-4.18
2023-01-23T02:25:11.741Z,-4.18
2023-01-23T02:30:11.722Z,-4.43
2023-01-23T02:35:11.727Z,-4.12
2023-01-23T02:40:11.699Z,-4.31
2023-01-23T02:45:11.786Z,-4.25
2023-01-23T02:50:11.716Z,-4
2023-01-23T02:55:11.832Z,-3.81
2023-01-23T03:00:11.823Z,-3.68
2023-01-23T03:05:11.744Z,-3.68
2023-01-23T03:10:11.710Z,-3.75
2023-01-23T03:15:11.714Z,-3.93
2023-01-23T03:20:11.719Z,-3.87
2023-01-23T03:25:11.711Z,-3.5
2023-01-23T03:30:11.847Z,-3.37
2023-01-23T03:35:11.694Z,-3.31
2023-01-23T03:40:11.759Z,-3.31
2023-01-23T03:45:11.797Z,-3.43
2023-01-23T03:50:11.736Z,-3.68
2023-01-23T03:55:11.704Z,-3.37
2023-01-23T04:00:11.730Z,-3.25
2023-01-23T04:05:11.786Z,-3.43
2023-01-23T04:10:13.204Z,-3.37
2023-01-23T04:15:11.703Z,-3.25
2023-01-23T04:20:11.695Z,-3.31
2023-01-23T04:25:11.764Z,-3.12
2023-01-23T04:30:11.745Z,-3
2023-01-23T04:35:11.714Z,-2.87
2023-01-23T04:40:11.713Z,-3
2023-01-23T04:45:11.768Z,-3
2023-01-23T04:50:11.709Z,-2.87
2023-01-23T04:55:11.717Z,-3
2023-01-23T05:00:11.792Z,-3
2023-01-23T05:05:11.735Z,-3.18
2023-01-23T05:10:11.720Z,-2.93
2023-01-23T05:15:11.741Z,-2.68
2023-01-23T05:20:11.719Z,-2.5
2023-01-23T05:25:11.701Z,-2.62
2023-01-23T05:30:11.738Z,-2.56
2023-01-23T05:35:11.696Z,-2.56
2023-01-23T05:40:11.732Z,-2.68
2023-01-23T05:45:11.688Z,-2.75
2023-01-23T05:50:11.699Z,-2.75
2023-01-23T05:55:11.703Z,-2.56
2023-01-23T06:00:11.699Z,-2.56
2023-01-23T06:05:11.722Z,-2.68
2023-01-23T06:10:11.745Z,-2.75
2023-01-23T06:15:11.717Z,-2.68
2023-01-23T06:20:11.694Z,-2.68
2023-01-23T06:25:11.704Z,-2.68
2023-01-23T06:30:11.712Z,-2.5
2023-01-23T06:40:11.674Z,-2.68
2023-01-23T06:45:11.757Z,-2.62
2023-01-23T06:50:11.683Z,-2.56
2023-01-23T06:55:13.173Z,-2.56
2023-01-23T07:00:11.701Z,-2.56
2023-01-23T07:05:11.725Z,-2.62
2023-01-23T07:10:11.699Z,-2.5
2023-01-23T07:15:11.712Z,-2.5
2023-01-23T07:20:11.688Z,-2.31
2023-01-23T07:25:11.681Z,-2.31
2023-01-23T07:30:11.696Z,-2.37
2023-01-23T07:35:11.692Z,-2.31
2023-01-23T07:40:11.711Z,-1.68
2023-01-23T07:45:11.707Z,-2.18
2023-01-23T07:50:11.692Z,-2.12
2023-01-23T07:55:11.683Z,-2.12
2023-01-23T08:00:11.780Z,-2.18
2023-01-23T08:05:11.784Z,-1.93
2023-01-23T08:10:11.694Z,-1.75
2023-01-23T08:15:11.743Z,-1.87
2023-01-23T08:20:11.767Z,-1.56
2023-01-23T08:25:11.677Z,-1.75
2023-01-23T08:30:11.703Z,-1.87
2023-01-23T08:35:11.783Z,-1.75
2023-01-23T08:40:11.704Z,-1.68
2023-01-23T08:45:11.678Z,-1.56
2023-01-23T08:50:11.689Z,-1.31
2023-01-23T08:55:11.684Z,-1.37
2023-01-23T09:00:11.689Z,-1.43
2023-01-23T09:05:11.791Z,-0.81
2023-01-23T09:10:11.878Z,-0.68
2023-01-23T09:15:11.677Z,-0.62
2023-01-23T09:20:11.664Z,-0.81
2023-01-23T09:25:11.675Z,-0.56
2023-01-23T09:30:11.683Z,-0.62
2023-01-23T09:35:11.661Z,-0.87
2023-01-23T09:40:11.667Z,-0.93
2023-01-23T09:45:11.666Z,-1.12
2023-01-23T09:50:11.680Z,-1
2023-01-23T09:55:11.731Z,-0.81
2023-01-23T10:00:11.646Z,-0.87
2023-01-23T10:05:11.711Z,-0.5
2023-01-23T10:10:11.651Z,-0.56
2023-01-23T10:15:11.676Z,-0.37
2023-01-23T10:20:11.703Z,-0.37
2023-01-23T10:25:11.632Z,0.37
2023-01-23T10:30:11.638Z,0.87
2023-01-23T10:35:11.643Z,0
2023-01-23T10:40:11.652Z,-0.31
2023-01-23T10:45:11.644Z,0
2023-01-23T10:50:11.659Z,0.12
2023-01-23T10:55:11.636Z,0.06
2023-01-23T11:00:11.634Z,0.06
2023-01-23T11:05:11.642Z,0.18
2023-01-23T11:10:11.613Z,0.18
2023-01-23T11:15:11.641Z,0.37
2023-01-23T11:20:11.600Z,0.5
2023-01-23T11:25:11.616Z,0.18
2023-01-23T11:30:11.658Z,0.18
2023-01-23T11:35:11.646Z,0.18
2023-01-23T11:40:11.612Z,0.62
2023-01-23T11:45:11.700Z,0.31
2023-01-23T11:50:11.635Z,0.56
2023-01-23T11:55:11.631Z,0.37
2023-01-23T12:00:11.853Z,0.56
2023-01-23T12:05:11.633Z,0.68
2023-01-23T12:10:11.612Z,0.56
2023-01-23T12:15:11.652Z,0.31
2023-01-23T12:20:11.594Z,0.56
2023-01-23T12:25:11.567Z,0.37
2023-01-23T12:30:11.612Z,0.62
2023-01-23T12:35:11.582Z,0.56
2023-01-23T12:40:11.591Z,0.56
2023-01-23T12:45:11.577Z,0.56
2023-01-23T12:55:11.571Z,0.62
2023-01-23T13:15:14.393Z,0.5
2023-01-23T13:25:11.550Z,0.31
2023-01-23T14:25:11.556Z,0.43
2023-01-23T14:30:11.519Z,0.31
2023-01-23T14:35:11.520Z,0.25
2023-01-23T14:40:12.452Z,0.12
2023-01-23T14:45:11.515Z,0.12
2023-01-23T14:50:11.577Z,0.12
2023-01-23T14:55:13.002Z,0.12
2023-01-23T15:00:11.537Z,0
2023-01-23T15:05:11.519Z,0.06
2023-01-23T15:10:11.510Z,-0.06
2023-01-23T15:15:11.529Z,-0.06
2023-01-23T15:20:11.485Z,-0.06
2023-01-23T15:25:11.516Z,-0.06
2023-01-23T15:30:11.500Z,-0.06
2023-01-23T15:35:11.492Z,-0.12
2023-01-23T15:40:11.482Z,-0.12
2023-01-23T15:45:11.502Z,-0.18
2023-01-23T15:50:11.493Z,-0.12
2023-01-23T15:55:11.513Z,-0.18
2023-01-23T16:00:11.512Z,-0.18
2023-01-23T16:05:11.471Z,-0.18
2023-01-23T16:10:11.486Z,-0.18
2023-01-23T16:15:11.486Z,-0.25
2023-01-23T16:20:11.455Z,-0.18
2023-01-23T16:25:11.607Z,-0.12
2023-01-23T16:30:11.483Z,-0.18
2023-01-23T16:35:11.455Z,-0.12
2023-01-23T16:40:11.473Z,-0.31
2023-01-23T16:45:11.491Z,-0.37
2023-01-23T16:50:11.487Z,-0.31
2023-01-23T16:55:11.450Z,-0.31
2023-01-23T17:00:11.493Z,-0.37
2023-01-23T17:05:11.468Z,-0.37
2023-01-23T17:10:11.474Z,-0.25
2023-01-23T17:15:11.462Z,-0.37
2023-01-23T17:20:11.464Z,-0.37
2023-01-23T17:25:11.485Z,-0.37
2023-01-23T17:30:11.456Z,-0.5
2023-01-23T17:35:11.444Z,-0.5
2023-01-23T17:40:11.458Z,-0.43
2023-01-23T17:45:11.473Z,-0.43
2023-01-23T17:50:11.449Z,-0.43
2023-01-23T17:55:11.458Z,-0.37
2023-01-23T18:00:11.574Z,-0.37
2023-01-23T18:05:11.479Z,-0.43
2023-01-23T18:10:11.439Z,-0.31
2023-01-23T18:15:11.459Z,-0.37
2023-01-23T18:20:11.445Z,-0.37
2023-01-23T18:25:11.451Z,-0.37
2023-01-23T18:30:11.453Z,-0.25
2023-01-23T18:35:11.503Z,-0.37
2023-01-23T18:40:11.420Z,-0.31
2023-01-23T18:45:11.423Z,-0.25
2023-01-23T18:50:11.452Z,-0.25
2023-01-23T18:55:11.461Z,-0.25
2023-01-23T19:00:11.458Z,-0.18
2023-01-23T19:05:11.423Z,-0.31
2023-01-23T19:10:11.446Z,-0.25
2023-01-23T19:15:11.413Z,-0.25
2023-01-23T19:20:11.468Z,-0.18
2023-01-23T19:25:11.423Z,-0.18
2023-01-23T19:30:11.438Z,-0.18
2023-01-23T19:35:14.139Z,-0.25
2023-01-23T19:40:11.400Z,-0.18
2023-01-23T19:45:11.532Z,-0.18
2023-01-23T19:50:11.422Z,-0.25
2023-01-23T19:55:11.413Z,-0.31
2023-01-23T20:00:11.586Z,-0.31
2023-01-23T20:05:11.495Z,-0.31
2023-01-23T20:10:11.394Z,-0.31
2023-01-23T20:15:11.487Z,-0.31
2023-01-23T20:20:11.958Z,-0.25
2023-01-23T20:25:11.398Z,-0.31
2023-01-23T20:30:11.481Z,-0.25
2023-01-23T20:35:11.398Z,-0.25
2023-01-23T20:40:11.390Z,-0.25
2023-01-23T20:45:11.479Z,-0.18
2023-01-23T20:55:11.376Z,-0.18
2023-01-23T21:00:11.614Z,-0.12
2023-01-23T21:05:11.421Z,-0.18
2023-01-23T21:10:11.392Z,-0.25
2023-01-23T21:15:11.384Z,-0.31
2023-01-23T21:20:11.454Z,-0.37
2023-01-23T21:25:11.373Z,-0.31
2023-01-23T21:30:11.407Z,-0.31
2023-01-23T21:35:11.396Z,-0.37
2023-01-23T21:40:11.386Z,-0.43
2023-01-23T21:45:11.364Z,-0.37
2023-01-23T21:50:11.370Z,-0.31
2023-01-23T21:55:11.390Z,-0.37
2023-01-23T22:00:12.959Z,-0.37
2023-01-23T22:05:11.545Z,-0.37
2023-01-23T22:10:11.364Z,-0.37
2023-01-23T22:15:11.424Z,-0.37
2023-01-23T22:20:11.358Z,-0.37
2023-01-23T22:25:11.373Z,-0.37
2023-01-23T22:30:11.425Z,-0.37
2023-01-23T22:35:11.372Z,-0.31
2023-01-23T22:40:11.345Z,-0.37
2023-01-23T22:45:11.414Z,-0.37
2023-01-23T22:50:11.352Z,-0.25
2023-01-23T22:55:11.348Z,-0.25
2023-01-23T23:00:11.350Z,-0.25
2023-01-23T23:05:11.398Z,-0.31
2023-01-23T23:10:11.390Z,-0.31
2023-01-23T23:15:11.372Z,-0.25
2023-01-23T23:20:11.365Z,-0.25
2023-01-23T23:25:11.351Z,-0.31
2023-01-23T23:30:11.365Z,-0.25
2023-01-23T23:35:11.353Z,-0.25
2023-01-23T23:40:11.350Z,-0.25
2023-01-23T23:45:11.351Z,-0.25
2023-01-23T23:50:11.352Z,-0.25
2023-01-23T23:55:11.314Z,-0.18
